AirNav   Duncan Aviation - Near you to keep you flying
 
 651 users online  

1TE4 Zuehl Airport
Marion, Texas, USA

GOING TO MARION?


FAA INFORMATION EFFECTIVE 11 AUGUST 2022

Location

FAA Identifier: 1TE4
Lat/Long: 29-29-44.2750N 098-09-31.9650W
29-29.737917N 098-09.532750W
29.4956319,-98.1588792
(estimated)
Elevation: 592 ft. / 180 m (estimated)
Variation: 07E (1985)
From city: 4 miles S of MARION, TX
Time zone: UTC -5 (UTC -6 during Standard Time)
Zip code: 78124

Airport Operations

Airport use: Private use. Permission required prior to landing
Activation date: 06/1974
Control tower: no
ARTCC: HOUSTON CENTER
FSS: SAN ANGELO FLIGHT SERVICE STATION
Attendance: CONTINUOUS
Wind indicator: yes
Segmented circle: no

Airport Communications

WX ASOS at BAZ (14 nm NE): 119.325 (830-629-7979)
WX ASOS at SAT (16 nm W): PHONE 210-805-5583
WX ASOS at SSF (19 nm SW): PHONE 210-927-9391

Nearby radio navigation aids

VOR radial/distance  VOR name  Freq  Var
RNDr097/6.7RANDOLPH VORTAC112.3005E
SATr111/18.1SAN ANTONIO VORTAC116.8008E
SSFr037/(20.6)STINSON VOR108.4009E

Airport Services

Fuel available: 100
Airframe service: NONE
Powerplant service: NONE

Runway Information

Runway 17/35

Dimensions: 2963 x 200 ft. / 903 x 61 m
Surface: turf, in fair condition
RUNWAY 17  RUNWAY 35
Latitude: 29-29.982167N29-29.493667N
Longitude: 098-09.544333W098-09.521167W
Elevation: 592.0 ft.588.0 ft.
Traffic pattern: leftright
Runway end identifier lights: yesyes
Obstructions: trees, 800 ft. from runway, 14:1 slope to cleartrees, 800 ft. from runway, 14:1 slope to clear

Airport Ownership and Management from official FAA records

Ownership: Privately-owned
Owner: ZUEHL ARPT FLYING COMM OWNRS ASSN
P.O. BOX 618
MARION, TX 78124
Phone 210-602-7745
Manager: JAMES M. 'MATT' HUMES
12165 JOLLY ROAD
ADKINS, TX 78101
Phone 210-602-7745
PRESIDENT, ZAFCOA FLCNFXR@SBCGLOBAL.NET

Airport Operational Statistics

Aircraft based on the field: 105
Single engine airplanes: 100
Helicopters: 1
Ultralights: 4
    
Aircraft operations: avg 86/week
89% local general aviation
11% transient general aviation

Additional Remarks

ACFT WINGSPAN LTD TO 60 FT.
ARPT LCTD IN CLOSE PROXIMITY TO RANDOLPH AFB.
FOR CD CTC SAN ANTONIO APCH AT 210-805-5516.
OWNER REQUESTS ARPT BE CHARTED.

Instrument Procedures

There are no published instrument procedures at 1TE4.

Some nearby airports with instrument procedures:

KRND - Randolph Air Force Base (7 nm W)
KBAZ - New Braunfels National Airport (14 nm NE)
KSAT - San Antonio International Airport (16 nm W)
KSSF - Stinson Municipal Airport (19 nm SW)
KSKF - Kelly Field Airport (23 nm W)
 
Loc | Ops | Rwys | IFR | FBO | Links
Com | Nav | Svcs | Stats | Notes
Area around 1TE4 (Zuehl Airport)
 
Road maps at: MapQuest Bing Google
 
Aerial photo
WARNING: Photo may not be current or correct
Aerial photo of 1TE4 (Zuehl Airport)
Photo by “Krusty”
Photo taken 22-Jan-2011
looking north.

Do you have a better or more recent aerial photo of Zuehl Airport that you would like to share? If so, please send us your photo.

 
Sectional chart

 
Airport distance calculator
Flying to Zuehl Airport? Find the distance to fly.

From to 1TE4

Sunrise and sunset
Times for 16-Aug-2022
 Local
(UTC-5)
 Zulu
(UTC)
Morning civil twilight06:3711:37
Sunrise07:0212:02
Sunset20:1101:11
Evening civil twilight20:3601:36

Current date and time
Zulu (UTC)  16-Aug-2022 08:06:05
Local (UTC-5)  16-Aug-2022 03:06:05
 
METAR
KRND 
6nm W 
160756Z AUTO 10004KT 10SM CLR 23/23 A2991 RMK AO2 SLP119 T02330231 $
KSEQ 
14nm E 
160756Z AUTO 11005KT 10SM CLR 24/24 A2991 RMK AO2 SLP123 T02430236 $
KBAZ 
14nm NE 
160751Z AUTO 00000KT 10SM SCT012 25/23 A2992 RMK AO2 SLP121 T02500233
KSAT 
16nm W 
160751Z 11003KT 10SM SCT250 24/23 A2994 RMK AO2 SLP119 T02390228
KSSF 
19nm SW 
160753Z AUTO 12005KT 10SM CLR 25/24 A2991 RMK AO2 SLP114 T02500239
TAF
KRND 
6nm W 
151603Z 1516/1622 10009KT 9999 SCT013 BKN040 BKN150 QNH2991INS TEMPO 1516/1519 9000 -SHRA SCT013 BKN018 BKN080 BECMG 1518/1519 14012G18KT 9999 SCT030 BKN070 QNH2985INS BECMG 1605/1606 VRB06KT 9999 FEW120 BKN170 QNH2992INS BECMG 1608/1609 VRB06KT 4800 BR FEW003 BKN010 OVC018 QNH2993INS BECMG 1614/1615 17009KT 9999 NSW FEW018 SCT026 QNH2988INS TX34/1520Z TN24/1611Z LAST NO AMDS AFT 1600 NEXT 1610
KSAT 
16nm W 
160530Z 1606/1712 15008KT P6SM SCT020 SCT250 FM160900 13003KT P6SM SCT009 OVC015 TEMPO 1610/1614 BKN009 FM161500 15010KT P6SM SCT050 FM170900 17006KT P6SM BKN020
KSSF 
19nm SW 
160530Z 1606/1706 13005KT P6SM SCT020 SCT250 FM160900 11003KT P6SM SCT009 OVC015 TEMPO 1610/1614 BKN009 FM161500 14008KT P6SM SCT050
NOTAMs
Click for the latest NOTAMs
NOTAMs are issued by the DoD/FAA and will open in a separate window not controlled by AirNav.

 

 
 

Would you like to see your business listed on this page?

 If your business provides an interesting product or service to pilots, flight crews, aircraft, or users of the Zuehl Airport, you should consider listing it here.  To start the listing process, click on the button below
 
Add a business
 

Other Pages about Zuehl Airport

www.zuehlfield.com
 
Update a link
 
Copyright © AirNav, LLC. All rights reserved. Privacy Policy  Contact